sensor_id;sensor_type;location;lat;lon;timestamp;P1;durP1;ratioP1;P2;durP2;ratioP2
8716;SDS011;4395;48.554;8.820;2023-09-12T00:00:29;15.43;;;11.73;;
8716;SDS011;4395;48.554;8.820;2023-09-12T00:02:33;15.23;;;11.00;;
8716;SDS011;4395;48.554;8.820;2023-09-12T00:04:36;11.73;;;9.30;;
8716;SDS011;4395;48.554;8.820;2023-09-12T00:06:39;13.23;;;8.97;;
8716;SDS011;4395;48.554;8.820;2023-09-12T00:08:42;9.57;;;8.57;;
8716;SDS011;4395;48.554;8.820;2023-09-12T00:10:45;11.67;;;7.90;;
8716;SDS011;4395;48.554;8.820;2023-09-12T00:12:48;11.23;;;7.60;;
8716;SDS011;4395;48.554;8.820;2023-09-12T00:14:50;10.30;;;7.47;;
8716;SDS011;4395;48.554;8.820;2023-09-12T00:16:54;12.33;;;8.10;;
8716;SDS011;4395;48.554;8.820;2023-09-12T00:18:58;10.17;;;7.30;;
8716;SDS011;4395;48.554;8.820;2023-09-12T00:21:01;10.03;;;7.60;;
8716;SDS011;4395;48.554;8.820;2023-09-12T00:23:05;11.63;;;8.13;;
8716;SDS011;4395;48.554;8.820;2023-09-12T00:25:08;9.33;;;7.60;;
8716;SDS011;4395;48.554;8.820;2023-09-12T00:27:10;10.97;;;8.43;;
8716;SDS011;4395;48.554;8.820;2023-09-12T00:29:13;13.63;;;9.27;;
8716;SDS011;4395;48.554;8.820;2023-09-12T00:31:16;11.87;;;8.57;;
8716;SDS011;4395;48.554;8.820;2023-09-12T00:33:19;8.80;;;7.83;;
8716;SDS011;4395;48.554;8.820;2023-09-12T00:35:24;11.23;;;8.77;;
8716;SDS011;4395;48.554;8.820;2023-09-12T00:37:26;10.03;;;7.73;;
8716;SDS011;4395;48.554;8.820;2023-09-12T00:39:29;11.03;;;7.80;;
8716;SDS011;4395;48.554;8.820;2023-09-12T00:41:32;9.43;;;6.90;;
8716;SDS011;4395;48.554;8.820;2023-09-12T00:43:35;8.37;;;7.20;;
8716;SDS011;4395;48.554;8.820;2023-09-12T00:45:38;11.33;;;7.13;;
8716;SDS011;4395;48.554;8.820;2023-09-12T00:47:41;9.33;;;6.80;;
8716;SDS011;4395;48.554;8.820;2023-09-12T00:49:43;11.60;;;7.03;;
8716;SDS011;4395;48.554;8.820;2023-09-12T00:51:57;10.33;;;7.07;;
8716;SDS011;4395;48.554;8.820;2023-09-12T00:54:01;8.13;;;6.80;;
8716;SDS011;4395;48.554;8.820;2023-09-12T00:56:04;9.17;;;6.67;;
8716;SDS011;4395;48.554;8.820;2023-09-12T00:58:08;11.20;;;7.10;;
8716;SDS011;4395;48.554;8.820;2023-09-12T01:00:11;8.27;;;7.03;;
8716;SDS011;4395;48.554;8.820;2023-09-12T01:02:16;8.03;;;7.23;;
8716;SDS011;4395;48.554;8.820;2023-09-12T01:04:19;9.60;;;7.43;;
8716;SDS011;4395;48.554;8.820;2023-09-12T01:06:35;7.80;;;7.07;;
8716;SDS011;4395;48.554;8.820;2023-09-12T01:08:39;9.67;;;7.30;;
8716;SDS011;4395;48.554;8.820;2023-09-12T01:10:43;8.43;;;7.07;;
8716;SDS011;4395;48.554;8.820;2023-09-12T01:12:47;9.23;;;7.20;;
8716;SDS011;4395;48.554;8.820;2023-09-12T01:14:49;9.30;;;7.33;;
8716;SDS011;4395;48.554;8.820;2023-09-12T01:16:52;10.03;;;8.33;;
8716;SDS011;4395;48.554;8.820;2023-09-12T01:18:55;12.87;;;8.90;;
8716;SDS011;4395;48.554;8.820;2023-09-12T01:21:04;11.97;;;8.90;;
8716;SDS011;4395;48.554;8.820;2023-09-12T01:23:37;12.87;;;8.67;;
8716;SDS011;4395;48.554;8.820;2023-09-12T01:25:59;9.90;;;8.63;;
8716;SDS011;4395;48.554;8.820;2023-09-12T01:28:11;13.77;;;8.70;;
8716;SDS011;4395;48.554;8.820;2023-09-12T01:30:17;10.57;;;8.27;;
8716;SDS011;4395;48.554;8.820;2023-09-12T01:32:22;9.13;;;8.20;;
8716;SDS011;4395;48.554;8.820;2023-09-12T01:34:24;13.30;;;7.33;;
8716;SDS011;4395;48.554;8.820;2023-09-12T01:36:27;10.40;;;7.80;;
8716;SDS011;4395;48.554;8.820;2023-09-12T01:38:30;11.23;;;7.83;;
8716;SDS011;4395;48.554;8.820;2023-09-12T01:40:34;8.70;;;7.73;;
8716;SDS011;4395;48.554;8.820;2023-09-12T01:42:44;9.03;;;7.73;;
8716;SDS011;4395;48.554;8.820;2023-09-12T01:44:50;9.50;;;7.60;;
8716;SDS011;4395;48.554;8.820;2023-09-12T01:46:58;9.33;;;7.60;;
8716;SDS011;4395;48.554;8.820;2023-09-12T01:49:06;9.90;;;7.70;;
8716;SDS011;4395;48.554;8.820;2023-09-12T01:51:11;9.63;;;7.17;;
8716;SDS011;4395;48.554;8.820;2023-09-12T01:53:15;10.40;;;7.57;;
8716;SDS011;4395;48.554;8.820;2023-09-12T01:55:18;7.70;;;7.00;;
8716;SDS011;4395;48.554;8.820;2023-09-12T01:57:22;9.90;;;7.40;;
8716;SDS011;4395;48.554;8.820;2023-09-12T01:59:26;11.23;;;8.17;;
8716;SDS011;4395;48.554;8.820;2023-09-12T02:01:30;8.53;;;7.47;;
8716;SDS011;4395;48.554;8.820;2023-09-12T02:03:33;9.37;;;8.17;;
8716;SDS011;4395;48.554;8.820;2023-09-12T02:05:36;8.37;;;7.50;;
8716;SDS011;4395;48.554;8.820;2023-09-12T02:07:40;11.87;;;7.57;;
8716;SDS011;4395;48.554;8.820;2023-09-12T02:09:43;8.93;;;7.63;;
8716;SDS011;4395;48.554;8.820;2023-09-12T02:13:50;9.80;;;7.00;;
8716;SDS011;4395;48.554;8.820;2023-09-12T02:15:58;9.37;;;7.30;;
8716;SDS011;4395;48.554;8.820;2023-09-12T02:18:02;8.77;;;7.10;;
8716;SDS011;4395;48.554;8.820;2023-09-12T02:20:06;10.60;;;7.07;;
8716;SDS011;4395;48.554;8.820;2023-09-12T02:22:10;10.47;;;7.63;;
8716;SDS011;4395;48.554;8.820;2023-09-12T02:24:13;10.70;;;7.23;;
8716;SDS011;4395;48.554;8.820;2023-09-12T02:26:18;7.47;;;6.63;;
8716;SDS011;4395;48.554;8.820;2023-09-12T02:28:20;8.97;;;7.53;;
8716;SDS011;4395;48.554;8.820;2023-09-12T02:30:23;10.83;;;7.00;;
8716;SDS011;4395;48.554;8.820;2023-09-12T02:32:26;9.50;;;6.73;;
8716;SDS011;4395;48.554;8.820;2023-09-12T02:34:30;9.00;;;7.27;;
8716;SDS011;4395;48.554;8.820;2023-09-12T02:36:34;8.67;;;6.80;;
8716;SDS011;4395;48.554;8.820;2023-09-12T02:38:37;11.43;;;7.60;;
8716;SDS011;4395;48.554;8.820;2023-09-12T02:40:40;9.90;;;6.90;;
8716;SDS011;4395;48.554;8.820;2023-09-12T02:42:43;12.63;;;8.10;;
8716;SDS011;4395;48.554;8.820;2023-09-12T02:44:45;10.70;;;7.10;;
8716;SDS011;4395;48.554;8.820;2023-09-12T02:46:50;8.60;;;7.70;;
8716;SDS011;4395;48.554;8.820;2023-09-12T02:48:52;8.83;;;7.50;;
8716;SDS011;4395;48.554;8.820;2023-09-12T02:50:57;8.13;;;7.40;;
8716;SDS011;4395;48.554;8.820;2023-09-12T02:53:00;11.63;;;8.40;;
8716;SDS011;4395;48.554;8.820;2023-09-12T02:55:02;11.37;;;8.37;;
8716;SDS011;4395;48.554;8.820;2023-09-12T02:57:05;9.67;;;7.90;;
8716;SDS011;4395;48.554;8.820;2023-09-12T02:59:08;10.90;;;8.00;;
8716;SDS011;4395;48.554;8.820;2023-09-12T03:01:14;10.47;;;7.70;;
8716;SDS011;4395;48.554;8.820;2023-09-12T03:03:17;11.10;;;8.53;;
8716;SDS011;4395;48.554;8.820;2023-09-12T03:05:20;12.73;;;8.60;;
8716;SDS011;4395;48.554;8.820;2023-09-12T03:07:24;11.90;;;8.03;;
8716;SDS011;4395;48.554;8.820;2023-09-12T03:09:26;8.80;;;7.57;;
8716;SDS011;4395;48.554;8.820;2023-09-12T03:11:29;9.47;;;7.93;;
8716;SDS011;4395;48.554;8.820;2023-09-12T03:13:32;8.83;;;7.43;;
8716;SDS011;4395;48.554;8.820;2023-09-12T03:15:36;9.83;;;7.47;;
8716;SDS011;4395;48.554;8.820;2023-09-12T03:17:40;8.80;;;7.97;;
8716;SDS011;4395;48.554;8.820;2023-09-12T03:19:42;8.63;;;7.50;;
8716;SDS011;4395;48.554;8.820;2023-09-12T03:21:45;10.03;;;7.53;;
8716;SDS011;4395;48.554;8.820;2023-09-12T03:23:49;11.07;;;8.13;;
8716;SDS011;4395;48.554;8.820;2023-09-12T03:25:51;9.10;;;7.23;;
8716;SDS011;4395;48.554;8.820;2023-09-12T03:27:54;11.97;;;8.63;;
8716;SDS011;4395;48.554;8.820;2023-09-12T03:29:57;9.47;;;7.83;;
8716;SDS011;4395;48.554;8.820;2023-09-12T03:32:00;14.20;;;7.40;;
8716;SDS011;4395;48.554;8.820;2023-09-12T03:34:04;8.47;;;7.43;;
8716;SDS011;4395;48.554;8.820;2023-09-12T03:36:06;11.40;;;8.27;;
8716;SDS011;4395;48.554;8.820;2023-09-12T03:38:10;10.07;;;8.17;;
8716;SDS011;4395;48.554;8.820;2023-09-12T03:40:13;8.60;;;7.47;;
8716;SDS011;4395;48.554;8.820;2023-09-12T03:42:16;11.13;;;7.67;;
8716;SDS011;4395;48.554;8.820;2023-09-12T03:44:19;9.50;;;7.20;;
8716;SDS011;4395;48.554;8.820;2023-09-12T03:46:23;11.50;;;7.87;;
8716;SDS011;4395;48.554;8.820;2023-09-12T03:48:26;14.60;;;7.93;;
8716;SDS011;4395;48.554;8.820;2023-09-12T03:50:27;10.77;;;7.47;;
8716;SDS011;4395;48.554;8.820;2023-09-12T03:52:30;12.07;;;7.80;;
8716;SDS011;4395;48.554;8.820;2023-09-12T03:54:32;10.57;;;6.90;;
8716;SDS011;4395;48.554;8.820;2023-09-12T03:56:36;9.17;;;7.97;;
8716;SDS011;4395;48.554;8.820;2023-09-12T03:58:40;13.63;;;8.43;;
8716;SDS011;4395;48.554;8.820;2023-09-12T04:00:44;9.57;;;7.60;;
8716;SDS011;4395;48.554;8.820;2023-09-12T04:02:47;9.03;;;7.90;;
8716;SDS011;4395;48.554;8.820;2023-09-12T04:04:50;10.13;;;7.83;;
8716;SDS011;4395;48.554;8.820;2023-09-12T04:06:53;9.80;;;8.13;;
8716;SDS011;4395;48.554;8.820;2023-09-12T04:08:56;10.07;;;8.13;;
8716;SDS011;4395;48.554;8.820;2023-09-12T04:10:59;9.10;;;8.17;;
8716;SDS011;4395;48.554;8.820;2023-09-12T04:13:03;10.87;;;8.63;;
8716;SDS011;4395;48.554;8.820;2023-09-12T04:15:07;9.03;;;7.57;;
8716;SDS011;4395;48.554;8.820;2023-09-12T04:17:10;9.10;;;8.20;;
8716;SDS011;4395;48.554;8.820;2023-09-12T04:19:13;11.07;;;8.63;;
8716;SDS011;4395;48.554;8.820;2023-09-12T04:21:16;10.63;;;8.37;;
8716;SDS011;4395;48.554;8.820;2023-09-12T04:23:19;9.40;;;8.27;;
8716;SDS011;4395;48.554;8.820;2023-09-12T04:25:22;11.40;;;7.57;;
8716;SDS011;4395;48.554;8.820;2023-09-12T04:27:25;11.33;;;8.20;;
8716;SDS011;4395;48.554;8.820;2023-09-12T04:29:31;11.20;;;7.90;;
8716;SDS011;4395;48.554;8.820;2023-09-12T04:31:34;9.50;;;7.57;;
8716;SDS011;4395;48.554;8.820;2023-09-12T04:33:37;10.27;;;7.77;;
8716;SDS011;4395;48.554;8.820;2023-09-12T04:35:40;9.30;;;7.67;;
8716;SDS011;4395;48.554;8.820;2023-09-12T04:37:44;11.13;;;7.67;;
8716;SDS011;4395;48.554;8.820;2023-09-12T04:39:45;10.67;;;7.70;;
8716;SDS011;4395;48.554;8.820;2023-09-12T04:41:49;9.87;;;8.40;;
8716;SDS011;4395;48.554;8.820;2023-09-12T04:43:51;12.00;;;7.93;;
8716;SDS011;4395;48.554;8.820;2023-09-12T04:45:56;8.87;;;7.77;;
8716;SDS011;4395;48.554;8.820;2023-09-12T04:47:59;11.60;;;8.30;;
8716;SDS011;4395;48.554;8.820;2023-09-12T04:50:02;11.13;;;8.23;;
8716;SDS011;4395;48.554;8.820;2023-09-12T04:52:05;14.17;;;8.90;;
8716;SDS011;4395;48.554;8.820;2023-09-12T04:54:08;13.00;;;9.30;;
8716;SDS011;4395;48.554;8.820;2023-09-12T04:56:11;14.00;;;9.73;;
8716;SDS011;4395;48.554;8.820;2023-09-12T04:58:14;13.67;;;10.10;;
8716;SDS011;4395;48.554;8.820;2023-09-12T05:00:17;12.43;;;9.77;;
8716;SDS011;4395;48.554;8.820;2023-09-12T05:02:21;10.77;;;9.43;;
8716;SDS011;4395;48.554;8.820;2023-09-12T05:04:24;15.07;;;9.60;;
8716;SDS011;4395;48.554;8.820;2023-09-12T05:06:27;9.77;;;8.77;;
8716;SDS011;4395;48.554;8.820;2023-09-12T05:08:30;11.70;;;9.63;;
8716;SDS011;4395;48.554;8.820;2023-09-12T05:10:32;14.93;;;9.00;;
8716;SDS011;4395;48.554;8.820;2023-09-12T05:12:35;14.93;;;9.43;;
8716;SDS011;4395;48.554;8.820;2023-09-12T05:14:38;13.40;;;9.90;;
8716;SDS011;4395;48.554;8.820;2023-09-12T05:16:40;15.90;;;9.90;;
8716;SDS011;4395;48.554;8.820;2023-09-12T05:18:45;13.57;;;10.37;;
8716;SDS011;4395;48.554;8.820;2023-09-12T05:20:50;12.47;;;9.87;;
8716;SDS011;4395;48.554;8.820;2023-09-12T05:22:53;14.83;;;9.90;;
8716;SDS011;4395;48.554;8.820;2023-09-12T05:24:56;13.27;;;9.70;;
8716;SDS011;4395;48.554;8.820;2023-09-12T05:26:59;14.00;;;9.23;;
8716;SDS011;4395;48.554;8.820;2023-09-12T05:29:01;13.00;;;9.37;;
8716;SDS011;4395;48.554;8.820;2023-09-12T05:31:04;15.63;;;9.30;;
8716;SDS011;4395;48.554;8.820;2023-09-12T05:33:09;11.93;;;8.87;;
8716;SDS011;4395;48.554;8.820;2023-09-12T05:35:13;13.03;;;9.30;;
8716;SDS011;4395;48.554;8.820;2023-09-12T05:37:23;11.37;;;9.90;;
8716;SDS011;4395;48.554;8.820;2023-09-12T05:39:27;11.10;;;8.67;;
8716;SDS011;4395;48.554;8.820;2023-09-12T05:41:30;13.33;;;9.93;;
8716;SDS011;4395;48.554;8.820;2023-09-12T05:43:32;12.43;;;10.23;;
8716;SDS011;4395;48.554;8.820;2023-09-12T05:45:34;10.37;;;8.93;;
8716;SDS011;4395;48.554;8.820;2023-09-12T05:47:37;11.20;;;8.73;;
8716;SDS011;4395;48.554;8.820;2023-09-12T05:49:40;12.07;;;9.20;;
8716;SDS011;4395;48.554;8.820;2023-09-12T05:51:44;10.60;;;8.70;;
8716;SDS011;4395;48.554;8.820;2023-09-12T05:53:47;11.67;;;8.93;;
8716;SDS011;4395;48.554;8.820;2023-09-12T05:55:51;12.40;;;8.30;;
8716;SDS011;4395;48.554;8.820;2023-09-12T05:57:53;13.50;;;8.50;;
8716;SDS011;4395;48.554;8.820;2023-09-12T05:59:58;11.67;;;8.87;;
8716;SDS011;4395;48.554;8.820;2023-09-12T06:02:12;10.17;;;8.90;;
8716;SDS011;4395;48.554;8.820;2023-09-12T06:04:16;12.00;;;8.87;;
8716;SDS011;4395;48.554;8.820;2023-09-12T06:06:19;11.30;;;9.00;;
8716;SDS011;4395;48.554;8.820;2023-09-12T06:08:23;10.63;;;9.63;;
8716;SDS011;4395;48.554;8.820;2023-09-12T06:10:26;10.13;;;8.80;;
8716;SDS011;4395;48.554;8.820;2023-09-12T06:12:29;16.50;;;9.50;;
8716;SDS011;4395;48.554;8.820;2023-09-12T06:14:34;9.80;;;8.70;;
8716;SDS011;4395;48.554;8.820;2023-09-12T06:16:37;12.90;;;8.90;;
8716;SDS011;4395;48.554;8.820;2023-09-12T06:18:40;10.70;;;9.47;;
8716;SDS011;4395;48.554;8.820;2023-09-12T06:20:43;11.40;;;9.20;;
8716;SDS011;4395;48.554;8.820;2023-09-12T06:22:46;13.57;;;9.83;;
8716;SDS011;4395;48.554;8.820;2023-09-12T06:24:50;12.13;;;8.33;;
8716;SDS011;4395;48.554;8.820;2023-09-12T06:26:53;11.03;;;9.87;;
8716;SDS011;4395;48.554;8.820;2023-09-12T06:28:55;11.53;;;9.50;;
8716;SDS011;4395;48.554;8.820;2023-09-12T06:30:58;10.80;;;9.57;;
8716;SDS011;4395;48.554;8.820;2023-09-12T06:33:01;9.73;;;8.73;;
8716;SDS011;4395;48.554;8.820;2023-09-12T06:35:05;12.07;;;9.07;;
8716;SDS011;4395;48.554;8.820;2023-09-12T06:37:11;13.47;;;9.40;;
8716;SDS011;4395;48.554;8.820;2023-09-12T06:39:14;9.80;;;8.90;;
8716;SDS011;4395;48.554;8.820;2023-09-12T06:41:19;11.80;;;8.67;;
8716;SDS011;4395;48.554;8.820;2023-09-12T06:43:22;10.30;;;9.00;;
8716;SDS011;4395;48.554;8.820;2023-09-12T06:45:25;13.70;;;9.60;;
8716;SDS011;4395;48.554;8.820;2023-09-12T06:47:28;14.57;;;9.80;;
8716;SDS011;4395;48.554;8.820;2023-09-12T06:49:30;11.10;;;9.07;;
8716;SDS011;4395;48.554;8.820;2023-09-12T06:51:36;12.00;;;8.67;;
8716;SDS011;4395;48.554;8.820;2023-09-12T06:53:39;12.97;;;9.37;;
8716;SDS011;4395;48.554;8.820;2023-09-12T06:55:42;13.47;;;8.80;;
8716;SDS011;4395;48.554;8.820;2023-09-12T06:57:46;11.43;;;9.37;;
8716;SDS011;4395;48.554;8.820;2023-09-12T06:59:49;12.13;;;9.27;;
8716;SDS011;4395;48.554;8.820;2023-09-12T07:01:52;13.87;;;8.50;;
8716;SDS011;4395;48.554;8.820;2023-09-12T07:03:54;11.67;;;8.90;;
8716;SDS011;4395;48.554;8.820;2023-09-12T07:05:57;10.03;;;8.97;;
8716;SDS011;4395;48.554;8.820;2023-09-12T07:08:01;10.40;;;9.47;;
8716;SDS011;4395;48.554;8.820;2023-09-12T07:10:04;11.40;;;8.73;;
8716;SDS011;4395;48.554;8.820;2023-09-12T07:12:25;10.50;;;9.50;;
8716;SDS011;4395;48.554;8.820;2023-09-12T07:14:31;13.43;;;9.33;;
8716;SDS011;4395;48.554;8.820;2023-09-12T07:16:33;10.67;;;9.67;;
8716;SDS011;4395;48.554;8.820;2023-09-12T07:18:36;12.23;;;8.83;;
8716;SDS011;4395;48.554;8.820;2023-09-12T07:20:39;11.10;;;8.90;;
8716;SDS011;4395;48.554;8.820;2023-09-12T07:22:42;9.87;;;8.53;;
8716;SDS011;4395;48.554;8.820;2023-09-12T07:24:45;10.83;;;8.47;;
8716;SDS011;4395;48.554;8.820;2023-09-12T07:26:48;15.63;;;9.57;;
8716;SDS011;4395;48.554;8.820;2023-09-12T07:28:51;13.27;;;8.90;;
8716;SDS011;4395;48.554;8.820;2023-09-12T07:30:54;9.93;;;8.93;;
8716;SDS011;4395;48.554;8.820;2023-09-12T07:32:58;10.07;;;8.77;;
8716;SDS011;4395;48.554;8.820;2023-09-12T07:35:00;13.33;;;9.03;;
8716;SDS011;4395;48.554;8.820;2023-09-12T07:37:03;15.00;;;9.20;;
8716;SDS011;4395;48.554;8.820;2023-09-12T07:39:06;12.40;;;8.73;;
8716;SDS011;4395;48.554;8.820;2023-09-12T07:41:09;9.67;;;8.17;;
8716;SDS011;4395;48.554;8.820;2023-09-12T07:43:12;10.87;;;8.73;;
8716;SDS011;4395;48.554;8.820;2023-09-12T07:45:15;9.97;;;8.93;;
8716;SDS011;4395;48.554;8.820;2023-09-12T07:47:19;10.07;;;8.97;;
8716;SDS011;4395;48.554;8.820;2023-09-12T07:49:22;9.27;;;8.37;;
8716;SDS011;4395;48.554;8.820;2023-09-12T07:51:27;10.63;;;8.37;;
8716;SDS011;4395;48.554;8.820;2023-09-12T07:53:30;9.03;;;8.00;;
8716;SDS011;4395;48.554;8.820;2023-09-12T07:55:35;11.13;;;9.00;;
8716;SDS011;4395;48.554;8.820;2023-09-12T07:57:46;10.07;;;7.93;;
8716;SDS011;4395;48.554;8.820;2023-09-12T07:59:49;10.73;;;9.30;;
8716;SDS011;4395;48.554;8.820;2023-09-12T08:01:52;10.97;;;8.37;;
8716;SDS011;4395;48.554;8.820;2023-09-12T08:03:56;11.20;;;8.90;;
8716;SDS011;4395;48.554;8.820;2023-09-12T08:05:59;9.77;;;8.23;;
8716;SDS011;4395;48.554;8.820;2023-09-12T08:08:01;8.80;;;8.00;;
8716;SDS011;4395;48.554;8.820;2023-09-12T08:10:04;11.30;;;8.37;;
8716;SDS011;4395;48.554;8.820;2023-09-12T08:12:08;9.63;;;8.53;;
8716;SDS011;4395;48.554;8.820;2023-09-12T08:14:11;11.10;;;8.53;;
8716;SDS011;4395;48.554;8.820;2023-09-12T08:16:14;13.90;;;9.07;;
8716;SDS011;4395;48.554;8.820;2023-09-12T08:18:17;9.70;;;8.60;;
8716;SDS011;4395;48.554;8.820;2023-09-12T08:20:21;10.80;;;9.13;;
8716;SDS011;4395;48.554;8.820;2023-09-12T08:22:23;10.30;;;8.30;;
8716;SDS011;4395;48.554;8.820;2023-09-12T08:24:26;9.13;;;8.20;;
8716;SDS011;4395;48.554;8.820;2023-09-12T08:26:29;9.87;;;8.87;;
8716;SDS011;4395;48.554;8.820;2023-09-12T08:28:33;8.93;;;8.03;;
8716;SDS011;4395;48.554;8.820;2023-09-12T08:30:36;12.47;;;8.20;;
8716;SDS011;4395;48.554;8.820;2023-09-12T08:32:39;9.33;;;8.43;;
8716;SDS011;4395;48.554;8.820;2023-09-12T08:34:45;9.37;;;8.47;;
8716;SDS011;4395;48.554;8.820;2023-09-12T08:36:49;12.57;;;7.77;;
8716;SDS011;4395;48.554;8.820;2023-09-12T08:38:52;9.13;;;7.90;;
8716;SDS011;4395;48.554;8.820;2023-09-12T08:40:55;9.07;;;7.90;;
8716;SDS011;4395;48.554;8.820;2023-09-12T08:42:58;8.30;;;7.60;;
8716;SDS011;4395;48.554;8.820;2023-09-12T08:45:01;8.97;;;8.07;;
8716;SDS011;4395;48.554;8.820;2023-09-12T08:47:04;8.53;;;7.50;;
8716;SDS011;4395;48.554;8.820;2023-09-12T08:49:09;11.33;;;7.67;;
8716;SDS011;4395;48.554;8.820;2023-09-12T08:51:13;8.60;;;7.70;;
8716;SDS011;4395;48.554;8.820;2023-09-12T08:53:17;11.07;;;7.80;;
8716;SDS011;4395;48.554;8.820;2023-09-12T08:55:24;12.90;;;7.83;;
8716;SDS011;4395;48.554;8.820;2023-09-12T08:57:27;10.07;;;7.97;;
8716;SDS011;4395;48.554;8.820;2023-09-12T08:59:30;9.00;;;8.20;;
8716;SDS011;4395;48.554;8.820;2023-09-12T09:01:33;7.97;;;7.23;;
8716;SDS011;4395;48.554;8.820;2023-09-12T09:03:37;8.90;;;7.97;;
8716;SDS011;4395;48.554;8.820;2023-09-12T09:05:42;8.30;;;7.50;;
8716;SDS011;4395;48.554;8.820;2023-09-12T09:07:46;8.57;;;7.70;;
8716;SDS011;4395;48.554;8.820;2023-09-12T09:09:51;8.90;;;7.83;;
8716;SDS011;4395;48.554;8.820;2023-09-12T09:11:55;8.53;;;7.67;;
8716;SDS011;4395;48.554;8.820;2023-09-12T09:13:57;11.60;;;8.20;;
8716;SDS011;4395;48.554;8.820;2023-09-12T09:16:10;9.37;;;7.53;;
8716;SDS011;4395;48.554;8.820;2023-09-12T09:18:14;8.43;;;7.53;;
8716;SDS011;4395;48.554;8.820;2023-09-12T09:20:27;11.20;;;7.77;;
8716;SDS011;4395;48.554;8.820;2023-09-12T09:22:32;8.87;;;8.00;;
8716;SDS011;4395;48.554;8.820;2023-09-12T09:24:35;9.40;;;7.70;;
8716;SDS011;4395;48.554;8.820;2023-09-12T09:26:42;8.00;;;7.20;;
8716;SDS011;4395;48.554;8.820;2023-09-12T09:29:00;11.67;;;7.53;;
8716;SDS011;4395;48.554;8.820;2023-09-12T09:31:09;7.73;;;7.03;;
8716;SDS011;4395;48.554;8.820;2023-09-12T09:33:12;8.03;;;7.23;;
8716;SDS011;4395;48.554;8.820;2023-09-12T09:35:16;8.27;;;7.47;;
8716;SDS011;4395;48.554;8.820;2023-09-12T09:37:19;9.90;;;8.10;;
8716;SDS011;4395;48.554;8.820;2023-09-12T09:39:23;10.10;;;7.77;;
8716;SDS011;4395;48.554;8.820;2023-09-12T09:41:27;9.07;;;7.63;;
8716;SDS011;4395;48.554;8.820;2023-09-12T09:43:30;9.10;;;7.67;;
8716;SDS011;4395;48.554;8.820;2023-09-12T09:45:42;8.43;;;7.53;;
8716;SDS011;4395;48.554;8.820;2023-09-12T09:47:48;9.83;;;7.90;;
8716;SDS011;4395;48.554;8.820;2023-09-12T09:49:52;11.43;;;7.30;;
8716;SDS011;4395;48.554;8.820;2023-09-12T09:51:55;11.03;;;7.67;;
8716;SDS011;4395;48.554;8.820;2023-09-12T09:53:58;12.70;;;7.37;;
8716;SDS011;4395;48.554;8.820;2023-09-12T09:56:07;8.33;;;7.50;;
8716;SDS011;4395;48.554;8.820;2023-09-12T09:58:14;13.07;;;8.00;;
8716;SDS011;4395;48.554;8.820;2023-09-12T10:00:21;9.97;;;8.10;;
8716;SDS011;4395;48.554;8.820;2023-09-12T10:02:25;10.00;;;7.13;;
8716;SDS011;4395;48.554;8.820;2023-09-12T10:04:29;7.70;;;6.90;;
8716;SDS011;4395;48.554;8.820;2023-09-12T10:06:46;8.43;;;7.50;;
8716;SDS011;4395;48.554;8.820;2023-09-12T10:08:50;7.47;;;6.77;;
8716;SDS011;4395;48.554;8.820;2023-09-12T10:10:54;10.47;;;7.07;;
8716;SDS011;4395;48.554;8.820;2023-09-12T10:12:57;8.33;;;7.33;;
8716;SDS011;4395;48.554;8.820;2023-09-12T10:14:59;8.10;;;7.33;;
8716;SDS011;4395;48.554;8.820;2023-09-12T10:17:04;9.10;;;7.73;;
8716;SDS011;4395;48.554;8.820;2023-09-12T10:19:10;8.83;;;7.80;;
8716;SDS011;4395;48.554;8.820;2023-09-12T10:21:18;8.30;;;6.90;;
8716;SDS011;4395;48.554;8.820;2023-09-12T10:23:27;9.20;;;7.40;;
8716;SDS011;4395;48.554;8.820;2023-09-12T10:25:38;8.10;;;7.30;;
8716;SDS011;4395;48.554;8.820;2023-09-12T10:27:42;9.37;;;7.53;;
8716;SDS011;4395;48.554;8.820;2023-09-12T10:29:45;7.90;;;7.30;;
8716;SDS011;4395;48.554;8.820;2023-09-12T10:31:51;8.17;;;7.27;;
8716;SDS011;4395;48.554;8.820;2023-09-12T10:33:55;8.70;;;7.53;;
8716;SDS011;4395;48.554;8.820;2023-09-12T10:36:01;9.03;;;7.07;;
8716;SDS011;4395;48.554;8.820;2023-09-12T10:38:04;9.30;;;7.50;;
8716;SDS011;4395;48.554;8.820;2023-09-12T10:40:10;8.20;;;7.50;;
8716;SDS011;4395;48.554;8.820;2023-09-12T10:42:15;7.57;;;6.97;;
8716;SDS011;4395;48.554;8.820;2023-09-12T10:44:19;7.63;;;6.80;;
8716;SDS011;4395;48.554;8.820;2023-09-12T10:46:23;7.87;;;7.07;;
8716;SDS011;4395;48.554;8.820;2023-09-12T10:48:26;7.57;;;6.87;;
8716;SDS011;4395;48.554;8.820;2023-09-12T10:50:30;8.73;;;7.93;;
8716;SDS011;4395;48.554;8.820;2023-09-12T10:52:33;8.63;;;7.57;;
8716;SDS011;4395;48.554;8.820;2023-09-12T10:54:39;7.90;;;6.97;;
8716;SDS011;4395;48.554;8.820;2023-09-12T10:56:42;9.10;;;6.60;;
8716;SDS011;4395;48.554;8.820;2023-09-12T10:59:10;8.10;;;7.07;;
8716;SDS011;4395;48.554;8.820;2023-09-12T11:01:21;7.63;;;6.80;;
8716;SDS011;4395;48.554;8.820;2023-09-12T11:03:37;11.83;;;6.93;;
8716;SDS011;4395;48.554;8.820;2023-09-12T11:05:51;7.60;;;6.87;;
8716;SDS011;4395;48.554;8.820;2023-09-12T11:07:56;10.23;;;9.10;;
8716;SDS011;4395;48.554;8.820;2023-09-12T11:12:33;7.10;;;6.47;;
8716;SDS011;4395;48.554;8.820;2023-09-12T11:14:43;6.93;;;6.20;;
8716;SDS011;4395;48.554;8.820;2023-09-12T11:19:28;10.07;;;6.93;;
8716;SDS011;4395;48.554;8.820;2023-09-12T11:21:34;8.93;;;6.87;;
8716;SDS011;4395;48.554;8.820;2023-09-12T11:23:37;7.47;;;6.57;;
8716;SDS011;4395;48.554;8.820;2023-09-12T11:25:41;7.33;;;6.70;;
8716;SDS011;4395;48.554;8.820;2023-09-12T11:27:46;12.90;;;6.57;;
8716;SDS011;4395;48.554;8.820;2023-09-12T11:30:05;7.00;;;6.30;;
8716;SDS011;4395;48.554;8.820;2023-09-12T11:32:09;7.07;;;6.47;;
8716;SDS011;4395;48.554;8.820;2023-09-12T11:34:11;8.07;;;6.60;;
8716;SDS011;4395;48.554;8.820;2023-09-12T11:36:14;7.27;;;6.53;;
8716;SDS011;4395;48.554;8.820;2023-09-12T11:38:25;6.73;;;6.20;;
8716;SDS011;4395;48.554;8.820;2023-09-12T11:40:41;6.80;;;6.10;;
8716;SDS011;4395;48.554;8.820;2023-09-12T11:42:45;7.00;;;6.30;;
8716;SDS011;4395;48.554;8.820;2023-09-12T11:44:51;8.00;;;6.27;;
8716;SDS011;4395;48.554;8.820;2023-09-12T11:46:54;7.77;;;6.03;;
8716;SDS011;4395;48.554;8.820;2023-09-12T11:49:04;7.93;;;6.40;;
8716;SDS011;4395;48.554;8.820;2023-09-12T11:51:07;7.27;;;6.10;;
8716;SDS011;4395;48.554;8.820;2023-09-12T11:53:11;7.67;;;5.80;;
8716;SDS011;4395;48.554;8.820;2023-09-12T11:55:22;6.83;;;6.10;;
8716;SDS011;4395;48.554;8.820;2023-09-12T11:57:25;6.73;;;5.90;;
8716;SDS011;4395;48.554;8.820;2023-09-12T11:59:28;6.20;;;5.57;;
8716;SDS011;4395;48.554;8.820;2023-09-12T12:01:30;6.30;;;5.70;;
8716;SDS011;4395;48.554;8.820;2023-09-12T12:03:33;6.00;;;5.40;;
8716;SDS011;4395;48.554;8.820;2023-09-12T12:05:36;6.07;;;5.57;;
8716;SDS011;4395;48.554;8.820;2023-09-12T12:07:42;8.83;;;7.93;;
8716;SDS011;4395;48.554;8.820;2023-09-12T12:09:48;9.50;;;6.03;;
8716;SDS011;4395;48.554;8.820;2023-09-12T12:11:52;7.13;;;5.33;;
8716;SDS011;4395;48.554;8.820;2023-09-12T12:13:55;6.43;;;5.83;;
8716;SDS011;4395;48.554;8.820;2023-09-12T12:15:58;7.77;;;6.17;;
8716;SDS011;4395;48.554;8.820;2023-09-12T12:18:01;6.50;;;5.50;;
8716;SDS011;4395;48.554;8.820;2023-09-12T12:20:04;6.83;;;5.87;;
8716;SDS011;4395;48.554;8.820;2023-09-12T12:22:08;7.27;;;6.57;;
8716;SDS011;4395;48.554;8.820;2023-09-12T12:24:13;6.27;;;5.70;;
8716;SDS011;4395;48.554;8.820;2023-09-12T12:26:16;5.73;;;5.33;;
8716;SDS011;4395;48.554;8.820;2023-09-12T12:28:21;6.33;;;5.57;;
8716;SDS011;4395;48.554;8.820;2023-09-12T12:30:24;5.47;;;4.93;;
8716;SDS011;4395;48.554;8.820;2023-09-12T12:32:27;5.17;;;4.77;;
8716;SDS011;4395;48.554;8.820;2023-09-12T12:34:29;6.30;;;5.13;;
8716;SDS011;4395;48.554;8.820;2023-09-12T12:36:53;6.43;;;4.70;;
8716;SDS011;4395;48.554;8.820;2023-09-12T12:38:59;6.03;;;4.90;;
8716;SDS011;4395;48.554;8.820;2023-09-12T12:41:02;7.53;;;5.20;;
8716;SDS011;4395;48.554;8.820;2023-09-12T12:43:06;6.40;;;4.70;;
8716;SDS011;4395;48.554;8.820;2023-09-12T12:45:20;6.00;;;5.40;;
8716;SDS011;4395;48.554;8.820;2023-09-12T12:47:25;5.70;;;5.10;;
8716;SDS011;4395;48.554;8.820;2023-09-12T12:49:27;8.10;;;5.20;;
8716;SDS011;4395;48.554;8.820;2023-09-12T12:51:30;7.90;;;5.50;;
8716;SDS011;4395;48.554;8.820;2023-09-12T12:53:38;5.20;;;4.40;;